sensor_id;sensor_type;location;lat;lon;timestamp;pressure;altitude;pressure_sealevel;temperature;humidity
13011;BME280;6786;57.632;11.962;2023-07-13T00:01:15;100009.91;;;20.95;70.88
13011;BME280;6786;57.632;11.962;2023-07-13T00:03:44;100047.91;;;21.16;71.33
13011;BME280;6786;57.632;11.962;2023-07-13T00:06:12;100038.16;;;21.15;71.25
13011;BME280;6786;57.632;11.962;2023-07-13T00:08:40;100036.28;;;21.16;71.08
13011;BME280;6786;57.632;11.962;2023-07-13T00:11:09;100039.16;;;21.14;71.08
13011;BME280;6786;57.632;11.962;2023-07-13T00:13:37;100027.06;;;21.10;71.29
13011;BME280;6786;57.632;11.962;2023-07-13T00:16:06;100040.84;;;21.15;71.19
13011;BME280;6786;57.632;11.962;2023-07-13T00:18:37;100035.47;;;21.15;71.13
13011;BME280;6786;57.632;11.962;2023-07-13T00:21:05;100033.78;;;21.14;70.76
13011;BME280;6786;57.632;11.962;2023-07-13T00:23:35;100037.47;;;21.13;70.90
13011;BME280;6786;57.632;11.962;2023-07-13T00:26:04;100038.31;;;21.14;71.11
13011;BME280;6786;57.632;11.962;2023-07-13T00:28:34;100037.47;;;21.13;71.23
13011;BME280;6786;57.632;11.962;2023-07-13T00:31:03;100036.47;;;21.14;70.91
13011;BME280;6786;57.632;11.962;2023-07-13T00:33:34;100042.84;;;21.13;71.02
13011;BME280;6786;57.632;11.962;2023-07-13T00:36:05;100042.84;;;21.13;71.15
13011;BME280;6786;57.632;11.962;2023-07-13T00:38:34;100045.53;;;21.13;70.99
13011;BME280;6786;57.632;11.962;2023-07-13T00:41:03;100051.94;;;21.12;71.54
13011;BME280;6786;57.632;11.962;2023-07-13T00:43:32;100041.84;;;21.06;70.81
13011;BME280;6786;57.632;11.962;2023-07-13T00:46:18;100051.94;;;21.12;71.05
13011;BME280;6786;57.632;11.962;2023-07-13T00:48:48;100050.22;;;21.11;71.09
13011;BME280;6786;57.632;11.962;2023-07-13T00:51:22;100044.84;;;21.11;71.11
13011;BME280;6786;57.632;11.962;2023-07-13T00:53:53;100044.84;;;21.11;70.94
13011;BME280;6786;57.632;11.962;2023-07-13T00:56:23;100046.56;;;21.12;71.21
13011;BME280;6786;57.632;11.962;2023-07-13T00:58:52;100043.69;;;21.14;70.74
13011;BME280;6786;57.632;11.962;2023-07-13T01:01:21;99979.28;;;20.72;70.96
13011;BME280;6786;57.632;11.962;2023-07-13T01:03:49;100046.22;;;21.15;70.59
13011;BME280;6786;57.632;11.962;2023-07-13T01:06:19;100045.88;;;21.10;71.08
13011;BME280;6786;57.632;11.962;2023-07-13T01:08:47;100034.78;;;21.13;70.43
13011;BME280;6786;57.632;11.962;2023-07-13T01:11:19;100038.16;;;21.15;70.71
13011;BME280;6786;57.632;11.962;2023-07-13T01:13:48;100044.84;;;21.11;70.70
13011;BME280;6786;57.632;11.962;2023-07-13T01:16:22;100049.91;;;21.14;70.87
13011;BME280;6786;57.632;11.962;2023-07-13T01:18:52;100047.91;;;21.16;70.78
13011;BME280;6786;57.632;11.962;2023-07-13T01:21:22;100042.50;;;21.16;70.49
13011;BME280;6786;57.632;11.962;2023-07-13T01:23:50;100046.06;;;21.17;70.44
13011;BME280;6786;57.632;11.962;2023-07-13T01:26:19;100049.91;;;21.14;70.78
13011;BME280;6786;57.632;11.962;2023-07-13T01:28:47;100044.84;;;21.11;71.03
13011;BME280;6786;57.632;11.962;2023-07-13T01:31:15;100052.75;;;21.13;70.85
13011;BME280;6786;57.632;11.962;2023-07-13T01:33:43;100048.75;;;21.17;70.71
13011;BME280;6786;57.632;11.962;2023-07-13T01:36:12;100051.25;;;21.10;70.55
13011;BME280;6786;57.632;11.962;2023-07-13T01:38:41;100053.28;;;21.16;70.73
13011;BME280;6786;57.632;11.962;2023-07-13T01:41:11;100012.56;;;20.95;70.61
13011;BME280;6786;57.632;11.962;2023-07-13T01:43:39;100050.59;;;21.16;70.46
13011;BME280;6786;57.632;11.962;2023-07-13T01:46:07;100048.22;;;21.13;70.64
13011;BME280;6786;57.632;11.962;2023-07-13T01:48:50;100047.03;;;21.16;70.69
13011;BME280;6786;57.632;11.962;2023-07-13T01:51:19;100044.19;;;21.09;70.54
13011;BME280;6786;57.632;11.962;2023-07-13T01:53:49;100058.66;;;21.16;70.52
13011;BME280;6786;57.632;11.962;2023-07-13T01:56:18;100058.97;;;21.13;70.41
13011;BME280;6786;57.632;11.962;2023-07-13T01:58:46;100054.28;;;21.15;70.54
13011;BME280;6786;57.632;11.962;2023-07-13T02:01:15;100055.94;;;21.08;70.95
13011;BME280;6786;57.632;11.962;2023-07-13T02:03:44;100052.41;;;21.08;70.65
13011;BME280;6786;57.632;11.962;2023-07-13T02:06:13;100053.56;;;21.05;70.82
13011;BME280;6786;57.632;11.962;2023-07-13T02:08:41;100050.88;;;21.05;70.99
13011;BME280;6786;57.632;11.962;2023-07-13T02:11:11;100052.59;;;21.06;71.09
13011;BME280;6786;57.632;11.962;2023-07-13T02:13:40;100047.22;;;21.06;70.85
13011;BME280;6786;57.632;11.962;2023-07-13T02:16:08;100045.84;;;21.02;70.93
13011;BME280;6786;57.632;11.962;2023-07-13T02:18:37;100058.94;;;21.05;71.09
13011;BME280;6786;57.632;11.962;2023-07-13T02:21:05;100060.97;;;21.03;70.87
13011;BME280;6786;57.632;11.962;2023-07-13T02:23:33;100065.66;;;21.01;71.21
13011;BME280;6786;57.632;11.962;2023-07-13T02:26:03;100063.66;;;21.03;71.15
13011;BME280;6786;57.632;11.962;2023-07-13T02:28:33;100058.13;;;21.13;70.80
13011;BME280;6786;57.632;11.962;2023-07-13T02:31:06;100065.34;;;21.12;70.76
13011;BME280;6786;57.632;11.962;2023-07-13T02:33:35;100063.66;;;21.11;70.69
13011;BME280;6786;57.632;11.962;2023-07-13T02:36:04;100061.31;;;21.08;70.72
13011;BME280;6786;57.632;11.962;2023-07-13T02:38:33;100063.00;;;21.09;70.57
13011;BME280;6786;57.632;11.962;2023-07-13T02:41:03;100060.97;;;21.11;70.67
13011;BME280;6786;57.632;11.962;2023-07-13T02:43:33;100057.97;;;21.06;71.02
13011;BME280;6786;57.632;11.962;2023-07-13T02:46:02;100060.97;;;21.11;70.44
13011;BME280;6786;57.632;11.962;2023-07-13T02:48:35;100065.31;;;21.04;70.90
13011;BME280;6786;57.632;11.962;2023-07-13T02:51:03;100061.94;;;21.02;70.72
13011;BME280;6786;57.632;11.962;2023-07-13T02:53:32;100060.28;;;21.01;70.84
13011;BME280;6786;57.632;11.962;2023-07-13T02:56:00;100054.41;;;20.98;70.97
13011;BME280;6786;57.632;11.962;2023-07-13T02:58:28;100056.94;;;20.99;71.14
13011;BME280;6786;57.632;11.962;2023-07-13T03:00:58;100047.00;;;21.00;71.00
13011;BME280;6786;57.632;11.962;2023-07-13T03:03:26;100049.88;;;20.98;71.12
13011;BME280;6786;57.632;11.962;2023-07-13T03:05:58;100046.19;;;20.99;70.89
13011;BME280;6786;57.632;11.962;2023-07-13T03:08:27;100039.97;;;20.99;71.07
13011;BME280;6786;57.632;11.962;2023-07-13T03:10:59;100052.53;;;20.98;70.86
13011;BME280;6786;57.632;11.962;2023-07-13T03:13:27;100045.50;;;20.97;71.13
13011;BME280;6786;57.632;11.962;2023-07-13T03:15:57;100049.53;;;21.01;70.87
13011;BME280;6786;57.632;11.962;2023-07-13T03:18:27;100048.50;;;20.94;71.21
13011;BME280;6786;57.632;11.962;2023-07-13T03:20:55;100056.25;;;20.97;71.29
13011;BME280;6786;57.632;11.962;2023-07-13T03:23:23;100051.91;;;20.96;70.96
13011;BME280;6786;57.632;11.962;2023-07-13T03:26:01;100052.19;;;20.93;71.18
13011;BME280;6786;57.632;11.962;2023-07-13T03:28:30;100055.69;;;20.94;71.31
13011;BME280;6786;57.632;11.962;2023-07-13T03:31:01;100051.34;;;20.93;70.91
13011;BME280;6786;57.632;11.962;2023-07-13T03:33:30;100055.84;;;20.92;71.13
13011;BME280;6786;57.632;11.962;2023-07-13T03:35:59;100058.38;;;20.94;70.95
13011;BME280;6786;57.632;11.962;2023-07-13T03:38:27;100062.06;;;20.93;71.14
13011;BME280;6786;57.632;11.962;2023-07-13T03:40:55;100062.94;;;20.93;71.06
13011;BME280;6786;57.632;11.962;2023-07-13T03:43:22;100055.84;;;20.92;71.34
13011;BME280;6786;57.632;11.962;2023-07-13T03:45:51;100057.56;;;20.93;71.24
13011;BME280;6786;57.632;11.962;2023-07-13T03:48:20;100060.25;;;20.93;71.23
13011;BME280;6786;57.632;11.962;2023-07-13T03:50:49;100053.88;;;20.94;71.13
13011;BME280;6786;57.632;11.962;2023-07-13T03:53:17;100066.31;;;20.95;71.05
13011;BME280;6786;57.632;11.962;2023-07-13T03:55:46;100060.13;;;20.95;70.96
13011;BME280;6786;57.632;11.962;2023-07-13T03:58:29;100059.94;;;20.96;70.83
13011;BME280;6786;57.632;11.962;2023-07-13T04:00:57;100051.50;;;20.91;71.33
13011;BME280;6786;57.632;11.962;2023-07-13T04:03:28;100054.88;;;20.93;71.23
13011;BME280;6786;57.632;11.962;2023-07-13T04:06:00;100055.56;;;20.95;70.90
13011;BME280;6786;57.632;11.962;2023-07-13T04:08:29;100048.50;;;20.94;70.89
13011;BME280;6786;57.632;11.962;2023-07-13T04:10:58;100049.22;;;20.96;70.81
13011;BME280;6786;57.632;11.962;2023-07-13T04:13:26;100047.50;;;20.95;71.00
13011;BME280;6786;57.632;11.962;2023-07-13T04:15:55;100058.38;;;20.94;71.17
13011;BME280;6786;57.632;11.962;2023-07-13T04:18:23;100055.56;;;20.95;71.14
13011;BME280;6786;57.632;11.962;2023-07-13T04:20:53;100065.00;;;20.99;71.16
13011;BME280;6786;57.632;11.962;2023-07-13T04:23:21;100069.34;;;21.00;70.61
13011;BME280;6786;57.632;11.962;2023-07-13T04:25:51;100068.19;;;21.03;70.67
13011;BME280;6786;57.632;11.962;2023-07-13T04:28:21;100067.69;;;20.99;70.88
13011;BME280;6786;57.632;11.962;2023-07-13T04:30:50;100057.25;;;20.96;70.79
13011;BME280;6786;57.632;11.962;2023-07-13T04:33:18;100070.00;;;21.02;71.02
13011;BME280;6786;57.632;11.962;2023-07-13T04:35:49;100068.19;;;21.03;70.86
13011;BME280;6786;57.632;11.962;2023-07-13T04:38:24;100058.59;;;21.00;70.64
13011;BME280;6786;57.632;11.962;2023-07-13T04:40:55;100060.28;;;21.01;70.62
13011;BME280;6786;57.632;11.962;2023-07-13T04:43:23;100028.31;;;20.82;70.67
13011;BME280;6786;57.632;11.962;2023-07-13T04:45:52;100065.66;;;21.01;70.53
13011;BME280;6786;57.632;11.962;2023-07-13T04:48:21;100064.81;;;21.01;70.65
13011;BME280;6786;57.632;11.962;2023-07-13T04:50:54;99976.19;;;20.51;70.82
13011;BME280;6786;57.632;11.962;2023-07-13T04:53:25;100067.31;;;21.02;70.72
13011;BME280;6786;57.632;11.962;2023-07-13T04:55:54;100056.94;;;20.99;70.49
13011;BME280;6786;57.632;11.962;2023-07-13T04:58:23;100068.00;;;20.96;70.78
13011;BME280;6786;57.632;11.962;2023-07-13T05:00:52;100065.16;;;20.98;70.86
13011;BME280;6786;57.632;11.962;2023-07-13T05:03:20;100069.34;;;21.00;70.66
13011;BME280;6786;57.632;11.962;2023-07-13T05:05:55;100057.25;;;20.96;70.64
13011;BME280;6786;57.632;11.962;2023-07-13T05:08:25;100060.94;;;20.95;70.86
13011;BME280;6786;57.632;11.962;2023-07-13T05:10:54;100064.31;;;20.97;70.58
13011;BME280;6786;57.632;11.962;2023-07-13T05:13:23;100066.66;;;21.00;70.47
13011;BME280;6786;57.632;11.962;2023-07-13T05:15:56;100067.31;;;21.02;70.75
13011;BME280;6786;57.632;11.962;2023-07-13T05:18:25;100070.69;;;21.04;70.70
13011;BME280;6786;57.632;11.962;2023-07-13T05:20:58;100072.38;;;21.05;70.67
13011;BME280;6786;57.632;11.962;2023-07-13T05:23:30;100079.13;;;21.09;70.84
13011;BME280;6786;57.632;11.962;2023-07-13T05:25:58;100073.22;;;21.06;70.79
13011;BME280;6786;57.632;11.962;2023-07-13T05:28:27;100077.41;;;21.08;70.79
13011;BME280;6786;57.632;11.962;2023-07-13T05:30:56;100086.50;;;21.07;70.75
13011;BME280;6786;57.632;11.962;2023-07-13T05:33:25;100078.06;;;21.02;70.75
13011;BME280;6786;57.632;11.962;2023-07-13T05:35:54;100081.44;;;21.04;70.49
13011;BME280;6786;57.632;11.962;2023-07-13T05:38:22;100086.81;;;21.04;70.76
13011;BME280;6786;57.632;11.962;2023-07-13T05:40:53;100080.59;;;21.04;70.85
13011;BME280;6786;57.632;11.962;2023-07-13T05:43:22;100086.81;;;21.04;70.62
13011;BME280;6786;57.632;11.962;2023-07-13T05:45:52;100094.88;;;21.04;70.52
13011;BME280;6786;57.632;11.962;2023-07-13T05:48:21;100095.91;;;21.03;70.73
13011;BME280;6786;57.632;11.962;2023-07-13T05:50:50;100088.81;;;21.02;70.59
13011;BME280;6786;57.632;11.962;2023-07-13T05:53:18;100082.63;;;21.02;70.63
13011;BME280;6786;57.632;11.962;2023-07-13T05:55:47;100083.44;;;21.02;70.89
13011;BME280;6786;57.632;11.962;2023-07-13T05:58:18;100080.75;;;21.02;70.79
13011;BME280;6786;57.632;11.962;2023-07-13T06:00:47;100081.78;;;21.01;70.74
13011;BME280;6786;57.632;11.962;2023-07-13T06:03:15;100078.94;;;21.03;70.65
13011;BME280;6786;57.632;11.962;2023-07-13T06:05:44;100083.44;;;21.02;70.90
13011;BME280;6786;57.632;11.962;2023-07-13T06:08:12;100077.25;;;21.02;70.56
13011;BME280;6786;57.632;11.962;2023-07-13T06:10:40;100079.09;;;21.01;70.92
13011;BME280;6786;57.632;11.962;2023-07-13T06:13:08;100086.13;;;21.02;70.80
13011;BME280;6786;57.632;11.962;2023-07-13T06:15:38;100087.47;;;20.98;71.02
13011;BME280;6786;57.632;11.962;2023-07-13T06:18:06;100095.16;;;20.93;70.88
13011;BME280;6786;57.632;11.962;2023-07-13T06:20:37;100089.19;;;20.99;70.71
13011;BME280;6786;57.632;11.962;2023-07-13T06:23:05;100077.75;;;20.97;70.63
13011;BME280;6786;57.632;11.962;2023-07-13T06:25:34;100067.31;;;21.02;70.85
13011;BME280;6786;57.632;11.962;2023-07-13T06:28:02;100078.94;;;21.03;70.56
13011;BME280;6786;57.632;11.962;2023-07-13T06:30:30;100074.41;;;21.03;70.86
13011;BME280;6786;57.632;11.962;2023-07-13T06:33:00;100084.31;;;21.03;70.91
13011;BME280;6786;57.632;11.962;2023-07-13T06:35:28;100085.47;;;21.00;70.76
13011;BME280;6786;57.632;11.962;2023-07-13T06:37:57;100090.53;;;21.03;70.74
13011;BME280;6786;57.632;11.962;2023-07-13T06:40:25;100080.59;;;21.04;70.81
13011;BME280;6786;57.632;11.962;2023-07-13T06:42:55;100073.38;;;21.04;70.87
13011;BME280;6786;57.632;11.962;2023-07-13T06:45:24;100077.75;;;21.05;70.51
13011;BME280;6786;57.632;11.962;2023-07-13T06:47:52;100073.22;;;21.06;70.55
13011;BME280;6786;57.632;11.962;2023-07-13T06:50:22;100077.25;;;21.02;70.97
13011;BME280;6786;57.632;11.962;2023-07-13T06:52:50;100086.81;;;21.04;70.72
13011;BME280;6786;57.632;11.962;2023-07-13T06:55:19;100087.84;;;21.03;70.78
13011;BME280;6786;57.632;11.962;2023-07-13T06:57:47;100092.19;;;21.04;70.85
13011;BME280;6786;57.632;11.962;2023-07-13T07:00:16;100093.22;;;21.03;70.91
13011;BME280;6786;57.632;11.962;2023-07-13T07:02:44;100102.94;;;21.04;70.65
13011;BME280;6786;57.632;11.962;2023-07-13T07:05:13;100113.00;;;21.02;70.85
13011;BME280;6786;57.632;11.962;2023-07-13T07:07:43;100107.63;;;21.02;71.07
13011;BME280;6786;57.632;11.962;2023-07-13T07:10:11;100106.66;;;21.03;70.80
13011;BME280;6786;57.632;11.962;2023-07-13T07:12:39;100098.41;;;21.05;70.92
13011;BME280;6786;57.632;11.962;2023-07-13T07:15:08;100111.00;;;21.04;70.55
13011;BME280;6786;57.632;11.962;2023-07-13T07:17:36;100104.63;;;21.05;70.77
13011;BME280;6786;57.632;11.962;2023-07-13T07:20:05;100111.00;;;21.04;70.85
13011;BME280;6786;57.632;11.962;2023-07-13T07:22:34;100103.78;;;21.05;70.70
13011;BME280;6786;57.632;11.962;2023-07-13T07:25:04;100102.09;;;21.04;70.62
13011;BME280;6786;57.632;11.962;2023-07-13T07:27:33;100112.03;;;21.03;70.80
13011;BME280;6786;57.632;11.962;2023-07-13T07:30:05;100110.00;;;21.05;70.67
13011;BME280;6786;57.632;11.962;2023-07-13T07:32:37;100123.25;;;21.07;70.88
13011;BME280;6786;57.632;11.962;2023-07-13T07:35:08;100085.06;;;20.87;70.78
13011;BME280;6786;57.632;11.962;2023-07-13T07:37:37;100113.69;;;21.04;70.93
13011;BME280;6786;57.632;11.962;2023-07-13T07:40:10;100108.97;;;20.98;70.80
13011;BME280;6786;57.632;11.962;2023-07-13T07:42:41;100124.44;;;21.04;70.92
13011;BME280;6786;57.632;11.962;2023-07-13T07:45:10;100117.22;;;21.05;70.86
13011;BME280;6786;57.632;11.962;2023-07-13T07:47:38;100120.72;;;21.05;70.66
13011;BME280;6786;57.632;11.962;2023-07-13T07:50:07;100113.69;;;21.04;70.78
13011;BME280;6786;57.632;11.962;2023-07-13T07:52:36;100119.06;;;21.04;70.91
13011;BME280;6786;57.632;11.962;2023-07-13T07:55:06;100122.75;;;21.03;70.90
13011;BME280;6786;57.632;11.962;2023-07-13T07:57:39;100114.34;;;20.98;71.20
13011;BME280;6786;57.632;11.962;2023-07-13T08:00:12;100116.88;;;21.00;70.89
13011;BME280;6786;57.632;11.962;2023-07-13T08:02:43;100128.13;;;21.03;70.98
13011;BME280;6786;57.632;11.962;2023-07-13T08:05:15;100100.53;;;20.93;70.59
13011;BME280;6786;57.632;11.962;2023-07-13T08:07:46;100130.13;;;21.01;71.00
13011;BME280;6786;57.632;11.962;2023-07-13T08:10:16;100117.34;;;20.95;70.93
13011;BME280;6786;57.632;11.962;2023-07-13T08:12:46;100127.13;;;20.96;71.21
13011;BME280;6786;57.632;11.962;2023-07-13T08:15:17;100120.03;;;20.95;71.05
13011;BME280;6786;57.632;11.962;2023-07-13T08:17:47;100135.81;;;20.98;71.33
13011;BME280;6786;57.632;11.962;2023-07-13T08:20:16;100104.47;;;20.73;71.07
13011;BME280;6786;57.632;11.962;2023-07-13T08:22:44;100140.22;;;20.99;71.21
13011;BME280;6786;57.632;11.962;2023-07-13T08:25:13;100135.50;;;21.01;71.18
13011;BME280;6786;57.632;11.962;2023-07-13T08:27:41;100142.91;;;20.99;71.26
13011;BME280;6786;57.632;11.962;2023-07-13T08:30:11;100151.63;;;21.01;70.84
13011;BME280;6786;57.632;11.962;2023-07-13T08:32:40;100144.91;;;20.97;71.25
13011;BME280;6786;57.632;11.962;2023-07-13T08:35:08;100144.59;;;21.00;71.14
13011;BME280;6786;57.632;11.962;2023-07-13T08:37:36;100148.78;;;21.03;71.05
13011;BME280;6786;57.632;11.962;2023-07-13T08:40:07;100143.56;;;21.01;70.87
13011;BME280;6786;57.632;11.962;2023-07-13T08:42:39;100147.94;;;21.02;70.85
13011;BME280;6786;57.632;11.962;2023-07-13T08:45:17;100159.53;;;21.03;71.00
13011;BME280;6786;57.632;11.962;2023-07-13T08:47:51;100153.31;;;21.02;70.74
13011;BME280;6786;57.632;11.962;2023-07-13T08:50:25;100149.63;;;21.03;71.01
13011;BME280;6786;57.632;11.962;2023-07-13T08:52:56;100153.31;;;21.02;70.92
13011;BME280;6786;57.632;11.962;2023-07-13T08:55:29;100147.94;;;21.02;70.84
13011;BME280;6786;57.632;11.962;2023-07-13T08:58:04;100153.31;;;21.02;70.92
13011;BME280;6786;57.632;11.962;2023-07-13T09:00:41;100158.69;;;21.02;71.04
13011;BME280;6786;57.632;11.962;2023-07-13T09:03:18;100147.94;;;21.02;70.88
13011;BME280;6786;57.632;11.962;2023-07-13T09:05:51;100149.97;;;21.00;70.86
13011;BME280;6786;57.632;11.962;2023-07-13T09:08:42;100157.00;;;21.01;71.00
13011;BME280;6786;57.632;11.962;2023-07-13T09:11:26;100150.78;;;21.01;70.86
13011;BME280;6786;57.632;11.962;2023-07-13T09:14:03;100152.81;;;20.99;70.95
13011;BME280;6786;57.632;11.962;2023-07-13T09:16:36;100157.31;;;20.98;70.99
13011;BME280;6786;57.632;11.962;2023-07-13T09:19:07;100160.69;;;21.00;71.00
13011;BME280;6786;57.632;11.962;2023-07-13T09:21:41;100167.09;;;20.99;71.29
13011;BME280;6786;57.632;11.962;2023-07-13T09:24:29;100173.13;;;21.01;71.13
13011;BME280;6786;57.632;11.962;2023-07-13T09:27:09;100162.38;;;21.01;71.01
13011;BME280;6786;57.632;11.962;2023-07-13T09:29:42;100157.00;;;21.01;71.28
13011;BME280;6786;57.632;11.962;2023-07-13T09:32:18;100131.72;;;20.86;70.86
13011;BME280;6786;57.632;11.962;2023-07-13T09:34:53;100171.13;;;21.03;70.88
13011;BME280;6786;57.632;11.962;2023-07-13T09:37:24;100158.84;;;21.01;71.27
13011;BME280;6786;57.632;11.962;2023-07-13T09:39:56;100171.94;;;21.04;71.32
13011;BME280;6786;57.632;11.962;2023-07-13T09:42:25;100167.44;;;21.04;71.01
13011;BME280;6786;57.632;11.962;2023-07-13T09:44:56;100169.41;;;21.02;71.35
13011;BME280;6786;57.632;11.962;2023-07-13T09:47:29;100169.41;;;21.02;71.29
13011;BME280;6786;57.632;11.962;2023-07-13T09:49:58;100166.72;;;21.02;71.40
13011;BME280;6786;57.632;11.962;2023-07-13T09:52:40;100167.75;;;21.01;71.38
13011;BME280;6786;57.632;11.962;2023-07-13T09:55:24;100173.81;;;21.03;71.09
13011;BME280;6786;57.632;11.962;2023-07-13T09:57:52;100176.50;;;21.03;70.93
13011;BME280;6786;57.632;11.962;2023-07-13T10:00:22;100178.19;;;21.04;71.31
13011;BME280;6786;57.632;11.962;2023-07-13T10:03:09;100185.22;;;21.05;70.97
13011;BME280;6786;57.632;11.962;2023-07-13T10:05:44;100176.19;;;21.06;70.97
13011;BME280;6786;57.632;11.962;2023-07-13T10:08:21;100177.16;;;21.05;71.17
13011;BME280;6786;57.632;11.962;2023-07-13T10:10:57;100176.34;;;21.05;71.01
13011;BME280;6786;57.632;11.962;2023-07-13T10:13:33;100171.78;;;21.05;71.01
13011;BME280;6786;57.632;11.962;2023-07-13T10:16:04;100183.53;;;21.04;71.05
13011;BME280;6786;57.632;11.962;2023-07-13T10:18:39;100180.84;;;21.04;71.36
13011;BME280;6786;57.632;11.962;2023-07-13T10:21:11;100188.91;;;21.04;71.30
13011;BME280;6786;57.632;11.962;2023-07-13T10:23:45;100182.53;;;21.05;71.28
13011;BME280;6786;57.632;11.962;2023-07-13T10:26:19;100182.19;;;21.00;71.01
13011;BME280;6786;57.632;11.962;2023-07-13T10:28:52;100183.53;;;21.04;71.11
13011;BME280;6786;57.632;11.962;2023-07-13T10:31:23;100185.91;;;21.07;70.98
13011;BME280;6786;57.632;11.962;2023-07-13T10:33:53;100180.53;;;21.07;70.87
13011;BME280;6786;57.632;11.962;2023-07-13T10:36:32;100181.56;;;21.06;71.28
13011;BME280;6786;57.632;11.962;2023-07-13T10:39:03;100162.31;;;20.93;71.19
13011;BME280;6786;57.632;11.962;2023-07-13T10:41:35;100181.56;;;21.06;71.27
13011;BME280;6786;57.632;11.962;2023-07-13T10:44:09;100177.84;;;21.07;71.24
13011;BME280;6786;57.632;11.962;2023-07-13T10:46:43;100177.84;;;21.07;71.06
13011;BME280;6786;57.632;11.962;2023-07-13T10:49:14;100181.56;;;21.06;71.05
13011;BME280;6786;57.632;11.962;2023-07-13T10:51:44;100185.22;;;21.05;71.16
13011;BME280;6786;57.632;11.962;2023-07-13T10:54:19;100179.03;;;21.05;71.08
13011;BME280;6786;57.632;11.962;2023-07-13T10:56:52;100177.16;;;21.05;71.11
13011;BME280;6786;57.632;11.962;2023-07-13T10:59:25;100178.19;;;21.04;71.16
13011;BME280;6786;57.632;11.962;2023-07-13T11:01:57;100179.84;;;21.05;71.47
13011;BME280;6786;57.632;11.962;2023-07-13T11:04:29;100176.19;;;21.06;71.25
13011;BME280;6786;57.632;11.962;2023-07-13T11:07:11;100177.31;;;21.04;71.26
13011;BME280;6786;57.632;11.962;2023-07-13T11:09:50;100181.03;;;21.03;71.08
13011;BME280;6786;57.632;11.962;2023-07-13T11:12:49;100178.50;;;21.01;71.58
13011;BME280;6786;57.632;11.962;2023-07-13T11:15:32;100176.81;;;21.00;71.46
13011;BME280;6786;57.632;11.962;2023-07-13T11:18:11;100172.28;;;21.01;71.26
13011;BME280;6786;57.632;11.962;2023-07-13T11:20:48;100174.13;;;21.00;71.25
13011;BME280;6786;57.632;11.962;2023-07-13T11:23:20;100182.19;;;21.00;71.55
13011;BME280;6786;57.632;11.962;2023-07-13T11:25:53;100185.91;;;20.99;71.49
13011;BME280;6786;57.632;11.962;2023-07-13T11:28:25;100191.28;;;20.99;71.32
13011;BME280;6786;57.632;11.962;2023-07-13T11:31:14;100202.84;;;21.00;71.36
13011;BME280;6786;57.632;11.962;2023-07-13T11:33:56;100209.06;;;21.00;71.33
13011;BME280;6786;57.632;11.962;2023-07-13T11:36:36;100196.66;;;20.99;71.30
13011;BME280;6786;57.632;11.962;2023-07-13T11:39:17;100204.69;;;20.99;71.60
13011;BME280;6786;57.632;11.962;2023-07-13T11:41:50;100198.63;;;20.97;71.50
13011;BME280;6786;57.632;11.962;2023-07-13T11:44:21;100209.88;;;21.01;71.54
13011;BME280;6786;57.632;11.962;2023-07-13T11:46:51;100200.31;;;20.98;71.54
13011;BME280;6786;57.632;11.962;2023-07-13T11:49:22;100220.47;;;21.02;71.54
13011;BME280;6786;57.632;11.962;2023-07-13T11:51:53;100223.16;;;21.02;71.42
13011;BME280;6786;57.632;11.962;2023-07-13T11:54:27;100213.41;;;21.01;71.59
13011;BME280;6786;57.632;11.962;2023-07-13T11:56:59;100212.41;;;21.02;71.28
13011;BME280;6786;57.632;11.962;2023-07-13T11:59:30;100224.88;;;21.03;71.29
13011;BME280;6786;57.632;11.962;2023-07-13T12:02:00;100221.16;;;21.04;71.38
13011;BME280;6786;57.632;11.962;2023-07-13T12:04:32;100215.78;;;21.04;71.18
13011;BME280;6786;57.632;11.962;2023-07-13T12:07:07;100203.06;;;21.06;71.46
13011;BME280;6786;57.632;11.962;2023-07-13T12:09:36;100210.41;;;21.04;71.56
13011;BME280;6786;57.632;11.962;2023-07-13T12:12:10;100205.03;;;21.04;71.36
13011;BME280;6786;57.632;11.962;2023-07-13T12:14:39;100223.84;;;21.04;71.18
13011;BME280;6786;57.632;11.962;2023-07-13T12:17:15;100220.31;;;21.04;71.34
13011;BME280;6786;57.632;11.962;2023-07-13T12:19:45;100221.16;;;21.04;71.65
13011;BME280;6786;57.632;11.962;2023-07-13T12:22:18;100223.00;;;21.04;71.44
13011;BME280;6786;57.632;11.962;2023-07-13T12:24:48;100219.50;;;21.03;71.26
13011;BME280;6786;57.632;11.962;2023-07-13T12:27:20;100224.88;;;21.03;71.35
13011;BME280;6786;57.632;11.962;2023-07-13T12:29:50;100224.00;;;21.03;71.62
13011;BME280;6786;57.632;11.962;2023-07-13T12:32:20;100224.88;;;21.03;71.53
13011;BME280;6786;57.632;11.962;2023-07-13T12:34:53;100223.16;;;21.02;71.70
13011;BME280;6786;57.632;11.962;2023-07-13T12:37:24;100199.88;;;20.85;71.60
13011;BME280;6786;57.632;11.962;2023-07-13T12:39:53;100222.19;;;21.03;71.49
13011;BME280;6786;57.632;11.962;2023-07-13T12:42:24;100224.88;;;21.03;71.34
13011;BME280;6786;57.632;11.962;2023-07-13T12:44:57;100235.63;;;21.03;71.35
13011;BME280;6786;57.632;11.962;2023-07-13T12:47:27;100230.25;;;21.03;71.17
13011;BME280;6786;57.632;11.962;2023-07-13T12:49:57;100228.53;;;21.02;71.27
13011;BME280;6786;57.632;11.962;2023-07-13T12:52:31;100227.72;;;21.02;71.30
13011;BME280;6786;57.632;11.962;2023-07-13T12:55:06;100236.44;;;21.04;71.46
13011;BME280;6786;57.632;11.962;2023-07-13T12:57:44;100240.97;;;21.03;71.36
13011;BME280;6786;57.632;11.962;2023-07-13T13:00:23;100236.97;;;21.07;71.31
13011;BME280;6786;57.632;11.962;2023-07-13T13:02:53;100235.28;;;21.06;71.06
13011;BME280;6786;57.632;11.962;2023-07-13T13:05:42;100229.53;;;21.01;71.32
13011;BME280;6786;57.632;11.962;2023-07-13T13:08:13;100188.75;;;20.80;71.32
13011;BME280;6786;57.632;11.962;2023-07-13T13:10:42;100232.75;;;21.05;71.26